Main page
METAR-TAF:

METAR-TAF

Airports :

Oxford Airport

Oxford, England

latitude: 51-50-13N, longitude: 1-19-12W, elevation: 82 m

Current weather observation

The report was made 34 minutes ago, at 07:20 UTC
Wind 2 kt from the North/Northeast
Temperature -2°C
Humidity 100%
Pressure 1015 hPa
Visibility: 3000 m
mist

METAR: EGTK 200720Z 02002KT 3000 BR NSC M02/M02 Q1015

Time: 07:54 (07:54 UTC)

Forecast

The report was made 1 hour and 0 minutes ago, at 06:54 UTC
Forecast valid from 20 at 06 UTC to 20 at 15 UTC
Wind 3 kt from the Northeast
Visibility: 2000 m
Few clouds at a height of 2500 ft
mist
Becoming
from 20 at 08 UTC to 20 at 11 UTC
Visibility 10 km or more

TAF: EGTK 200654Z 2006/2015 05003KT 2000 BR FEW025 BECMG 2008/2011 9999 NSW

Weather observations and forecasts of more than 4000 airports (METAR and TAF reports).

The available stations are represented by yellow and red dots on the map.

Hover mouse over dot to see the name of the station.

Then click to see weather observations and forecasts.

To change the map : click on the green buttons with a black cross to zoom in, on the green button with a dash to zoom out, or on the green arrows for adjacent maps.


METAR-TAF: